Aérodrome :
LOGIN :

S'inscrire | Disclaimer

   EN    FR    IT 

 










Légende :    VFR   VFR Marginal   IFR   IFR Intensif   IFR Très Intensif
Visi : 
Plafond : 
>= 8 km
>= 3000ft
5 à 8 km
1000 à 3000 ft
1500m à 5 km
500 à 1000 ft
800 à 1500m
200 à 500 ft
< 800m
< 200 ft
Symboles :   Orages  Brouillard  Fortes neiges  Fortes précipitations  Vent > 20 kt
SIGMETs :   Divers  Orages  Givrage  Turbulence  Onde Orograph.  Cendres Volcan.






- Altitude de l'aérodrome : 495 ft
- Code IATA : BUD


LHBP - Budapest Ferihegy

DERNIER METAR :
  • 280430Z 32003KT 8000 NSC 15/14 Q1017 NOSIG

METARs EXPIRÉS :
  • 280400Z 31002KT CAVOK 16/15 Q1017 NOSIG
  • 280330Z 32002KT CAVOK 16/15 Q1017 NOSIG
  • 280300Z 32004KT CAVOK 16/15 Q1017 NOSIG
  • 280230Z 31005KT CAVOK 16/15 Q1017 NOSIG
  • 280200Z 31004KT CAVOK 16/15 Q1017 NOSIG

TAF TAF LHBP
Valide du 28 à 00h jusqu'au 29 à 00h UTC


272315Z 2800/2824 33005KT 9999 BKN045
TEMPO 2800/2818 4000 SHRA FEW010 SCT020 BKN040
BECMG 2807/2809 CAVOK



MET'MAP, la Météo Aéronautique d'un coup d'oeil ! - Copyright ORBIFLY Décembre 2007 - Disclaimer

ORBIFLY MET'MAP TEAM :

Programmation & Développement : Alexandra Zaïnal
Sur une idée originale de : Baudouin d'Aumeries
Assistance à la programmation : Marc-Olivier Méhu
Soutien technique & logistique : Manuel Goepfert

Contact : metmap@orbifly.com




SOURCES & CREDITS :

   NOAA